createdAt,value
2023-05-30T00:00:39.476Z,95187.00
2023-05-30T00:01:39.581Z,95189.00
2023-05-30T00:02:39.786Z,95189.00
2023-05-30T00:03:39.788Z,95185.00
2023-05-30T00:04:39.856Z,95183.00
2023-05-30T00:05:39.938Z,95183.00
2023-05-30T00:06:40.016Z,95181.00
2023-05-30T00:07:40.109Z,95183.00
2023-05-30T00:08:40.243Z,95179.00
2023-05-30T00:09:40.293Z,95177.00
2023-05-30T00:10:40.395Z,95179.00
2023-05-30T00:11:40.464Z,95177.00
2023-05-30T00:12:40.534Z,95179.00
2023-05-30T00:13:40.625Z,95177.00
2023-05-30T00:14:40.689Z,95175.00
2023-05-30T00:15:40.858Z,95175.00
2023-05-30T00:16:40.895Z,95177.00
2023-05-30T00:17:41.018Z,95177.00
2023-05-30T00:18:41.092Z,95177.00
2023-05-30T00:19:41.233Z,95177.00
2023-05-30T00:20:41.320Z,95179.00
2023-05-30T00:21:41.323Z,95181.00
2023-05-30T00:22:41.412Z,95183.00
2023-05-30T00:23:41.503Z,95181.00
2023-05-30T00:24:41.604Z,95181.00
2023-05-30T00:25:41.711Z,95183.00
2023-05-30T00:26:41.819Z,95183.00
2023-05-30T00:27:41.877Z,95183.00
2023-05-30T00:28:42.055Z,95183.00
2023-05-30T00:29:42.067Z,95185.00
2023-05-30T00:30:42.121Z,95185.00
2023-05-30T00:31:42.335Z,95185.00
2023-05-30T00:32:42.377Z,95185.00
2023-05-30T00:33:42.393Z,95183.00
2023-05-30T00:34:42.505Z,95183.00
2023-05-30T00:35:42.599Z,95185.00
2023-05-30T00:36:42.672Z,95185.00
2023-05-30T00:37:42.769Z,95183.00
2023-05-30T00:38:42.854Z,95185.00
2023-05-30T00:39:42.923Z,95185.00
2023-05-30T00:40:43.037Z,95183.00
2023-05-30T00:41:43.126Z,95185.00
2023-05-30T00:42:43.179Z,95183.00
2023-05-30T00:43:43.268Z,95185.00
2023-05-30T00:44:43.382Z,95185.00
2023-05-30T00:45:43.488Z,95187.00
2023-05-30T00:46:43.641Z,95183.00
2023-05-30T00:47:43.629Z,95183.00
2023-05-30T00:48:43.692Z,95185.00
2023-05-30T00:49:43.779Z,95183.00
2023-05-30T00:50:43.890Z,95185.00
2023-05-30T00:51:43.997Z,95183.00
2023-05-30T00:52:44.110Z,95185.00
2023-05-30T00:53:44.166Z,95185.00
2023-05-30T00:54:44.260Z,95181.00
2023-05-30T00:55:44.362Z,95185.00
2023-05-30T00:56:44.514Z,95187.00
2023-05-30T00:57:44.572Z,95185.00
2023-05-30T00:58:44.601Z,95189.00
2023-05-30T00:59:44.730Z,95189.00
2023-05-30T01:00:44.804Z,95191.00
2023-05-30T01:01:45.025Z,95185.00
2023-05-30T01:02:45.039Z,95185.00
2023-05-30T01:03:45.114Z,95187.00
2023-05-30T01:04:45.115Z,95185.00
2023-05-30T01:05:45.199Z,95185.00
2023-05-30T01:06:45.294Z,95185.00
2023-05-30T01:07:45.501Z,95187.00
2023-05-30T01:08:45.426Z,95189.00
2023-05-30T01:09:45.534Z,95197.00
2023-05-30T01:10:45.583Z,95195.00
2023-05-30T01:11:45.706Z,95201.00
2023-05-30T01:12:45.793Z,95197.00
2023-05-30T01:13:45.876Z,95197.00
2023-05-30T01:14:45.966Z,95203.00
2023-05-30T01:15:46.086Z,95203.00
2023-05-30T01:16:46.148Z,95199.00
2023-05-30T01:17:46.188Z,95205.00
2023-05-30T01:18:46.280Z,95203.00
2023-05-30T01:19:46.393Z,95203.00
2023-05-30T01:20:46.677Z,95201.00
2023-05-30T01:21:46.560Z,95201.00
2023-05-30T01:22:46.650Z,95203.00
2023-05-30T01:23:46.734Z,95199.00
2023-05-30T01:24:46.846Z,95201.00
2023-05-30T01:25:46.923Z,95201.00
2023-05-30T01:26:47.042Z,95199.00
2023-05-30T01:27:47.135Z,95199.00
2023-05-30T01:28:47.222Z,95197.00
2023-05-30T01:29:47.292Z,95197.00
2023-05-30T01:30:47.390Z,95197.00
2023-05-30T01:31:47.643Z,95195.00
2023-05-30T01:32:47.617Z,95195.00
2023-05-30T01:33:47.709Z,95195.00
2023-05-30T01:34:47.745Z,95197.00
2023-05-30T01:35:47.845Z,95201.00
2023-05-30T01:36:47.918Z,95201.00
2023-05-30T01:37:47.993Z,95203.00
2023-05-30T01:38:48.103Z,95203.00
2023-05-30T01:39:48.165Z,95205.00
2023-05-30T01:40:48.259Z,95207.00
2023-05-30T01:41:48.323Z,95209.00
2023-05-30T01:42:48.462Z,95207.00
2023-05-30T01:43:48.538Z,95209.00
2023-05-30T01:44:48.596Z,95207.00
2023-05-30T01:45:48.836Z,95207.00
2023-05-30T01:46:48.879Z,95209.00
2023-05-30T01:47:48.975Z,95213.00
2023-05-30T01:48:48.999Z,95211.00
2023-05-30T01:49:49.068Z,95215.00
2023-05-30T01:50:49.203Z,95211.00
2023-05-30T01:51:49.276Z,95215.00
2023-05-30T01:52:49.332Z,95211.00
2023-05-30T01:53:49.416Z,95215.00
2023-05-30T01:54:49.505Z,95215.00
2023-05-30T01:55:49.598Z,95213.00
2023-05-30T01:56:49.648Z,95217.00
2023-05-30T01:57:49.734Z,95211.00
2023-05-30T01:58:49.769Z,95215.00
2023-05-30T01:59:49.830Z,95217.00
2023-05-30T02:00:49.844Z,95215.00
2023-05-30T02:01:49.922Z,95217.00
2023-05-30T02:02:49.969Z,95217.00
2023-05-30T02:03:50.000Z,95217.00
2023-05-30T02:04:50.078Z,95219.00
2023-05-30T02:05:50.222Z,95219.00
2023-05-30T02:06:50.237Z,95219.00
2023-05-30T02:07:50.364Z,95219.00
2023-05-30T02:08:50.410Z,95221.00
2023-05-30T02:09:50.496Z,95217.00
2023-05-30T02:10:50.569Z,95221.00
2023-05-30T02:11:50.637Z,95221.00
2023-05-30T02:12:50.742Z,95222.00
2023-05-30T02:13:50.818Z,95221.00
2023-05-30T02:14:50.881Z,95221.00
2023-05-30T02:15:51.001Z,95219.00
2023-05-30T02:16:51.102Z,95222.00
2023-05-30T02:17:51.208Z,95221.00
2023-05-30T02:18:51.232Z,95224.00
2023-05-30T02:19:51.309Z,95222.00
2023-05-30T02:20:51.520Z,95222.00
2023-05-30T02:21:51.502Z,95222.00
2023-05-30T02:22:51.587Z,95221.00
2023-05-30T02:23:51.704Z,95222.00
2023-05-30T02:24:51.822Z,95222.00
2023-05-30T02:25:51.894Z,95224.00
2023-05-30T02:26:51.966Z,95224.00
2023-05-30T02:27:52.043Z,95222.00
2023-05-30T02:28:52.127Z,95222.00
2023-05-30T02:29:52.192Z,95224.00
2023-05-30T02:30:52.301Z,95222.00
2023-05-30T02:31:52.454Z,95222.00
2023-05-30T02:32:52.525Z,95226.00
2023-05-30T02:33:52.559Z,95224.00
2023-05-30T02:34:52.729Z,95226.00
2023-05-30T02:35:52.764Z,95222.00
2023-05-30T02:36:52.864Z,95224.00
2023-05-30T02:37:52.904Z,95224.00
2023-05-30T02:38:53.001Z,95226.00
2023-05-30T02:39:53.090Z,95226.00
2023-05-30T02:40:53.185Z,95226.00
2023-05-30T02:41:53.255Z,95226.00
2023-05-30T02:42:53.390Z,95228.00
2023-05-30T02:43:53.410Z,95226.00
2023-05-30T02:44:53.518Z,95226.00
2023-05-30T02:45:53.593Z,95226.00
2023-05-30T02:46:53.748Z,95230.00
2023-05-30T02:47:53.789Z,95230.00
2023-05-30T02:48:53.816Z,95232.00
2023-05-30T02:49:53.897Z,95234.00
2023-05-30T02:50:53.981Z,95236.00
2023-05-30T02:51:54.045Z,95236.00
2023-05-30T02:52:54.127Z,95232.00
2023-05-30T02:53:54.216Z,95238.00
2023-05-30T02:54:54.303Z,95238.00
2023-05-30T02:55:54.378Z,95238.00
2023-05-30T02:56:54.442Z,95238.00
2023-05-30T02:57:54.543Z,95238.00
2023-05-30T02:58:54.626Z,95238.00
2023-05-30T02:59:54.730Z,95240.00
2023-05-30T03:00:54.835Z,95238.00
2023-05-30T03:01:54.962Z,95240.00
2023-05-30T03:02:54.974Z,95240.00
2023-05-30T03:03:55.093Z,95240.00
2023-05-30T03:04:55.131Z,95238.00
2023-05-30T03:05:55.204Z,95238.00
2023-05-30T03:06:55.493Z,95238.00
2023-05-30T03:07:55.404Z,95238.00
2023-05-30T03:08:55.481Z,95238.00
2023-05-30T03:09:55.608Z,95238.00
2023-05-30T03:10:55.866Z,95240.00
2023-05-30T03:11:55.765Z,95240.00
2023-05-30T03:12:55.881Z,95240.00
2023-05-30T03:13:55.963Z,95240.00
2023-05-30T03:14:56.060Z,95240.00
2023-05-30T03:15:56.178Z,95240.00
2023-05-30T03:16:56.223Z,95238.00
2023-05-30T03:17:56.327Z,95240.00
2023-05-30T03:18:56.423Z,95240.00
2023-05-30T03:19:56.533Z,95240.00
2023-05-30T03:20:56.878Z,95240.00
2023-05-30T03:21:56.722Z,95238.00
2023-05-30T03:22:56.824Z,95238.00
2023-05-30T03:23:57.000Z,95238.00
2023-05-30T03:24:57.008Z,95238.00
2023-05-30T03:25:57.108Z,95238.00
2023-05-30T03:26:57.202Z,95240.00
2023-05-30T03:27:57.308Z,95242.00
2023-05-30T03:28:57.413Z,95242.00
2023-05-30T03:29:57.585Z,95244.00
2023-05-30T03:30:57.964Z,95244.00
2023-05-30T03:31:57.667Z,95246.00
2023-05-30T03:32:57.760Z,95244.00
2023-05-30T03:33:57.834Z,95246.00
2023-05-30T03:34:57.937Z,95246.00
2023-05-30T03:35:58.013Z,95246.00
2023-05-30T03:36:58.108Z,95248.00
2023-05-30T03:37:58.153Z,95248.00
2023-05-30T03:38:58.228Z,95248.00
2023-05-30T03:39:58.323Z,95250.00
2023-05-30T03:40:58.668Z,95248.00
2023-05-30T03:41:58.462Z,95246.00
2023-05-30T03:42:58.563Z,95250.00
2023-05-30T03:43:58.664Z,95254.00
2023-05-30T03:44:58.715Z,95254.00
2023-05-30T03:45:58.863Z,95256.00
2023-05-30T03:46:58.872Z,95256.00
2023-05-30T03:47:58.964Z,95256.00
2023-05-30T03:48:59.056Z,95258.00
2023-05-30T03:49:59.196Z,95262.00
2023-05-30T03:50:59.559Z,95258.00
2023-05-30T03:51:59.336Z,95262.00
2023-05-30T03:52:59.466Z,95264.00
2023-05-30T03:53:59.560Z,95262.00
2023-05-30T03:54:59.657Z,95264.00
2023-05-30T03:55:59.738Z,95262.00
2023-05-30T03:56:59.849Z,95264.00
2023-05-30T03:57:59.923Z,95268.00
2023-05-30T03:59:00.009Z,95268.00
2023-05-30T04:00:00.174Z,95266.00
2023-05-30T04:01:00.224Z,95266.00
2023-05-30T04:02:00.321Z,95269.00
2023-05-30T04:03:00.541Z,95268.00
2023-05-30T04:04:00.535Z,95266.00
2023-05-30T04:05:00.522Z,95268.00
2023-05-30T04:06:00.621Z,95269.00
2023-05-30T04:07:00.731Z,95269.00
2023-05-30T04:08:00.774Z,95271.00
2023-05-30T04:09:00.904Z,95271.00
2023-05-30T04:10:00.982Z,95269.00
2023-05-30T04:11:01.058Z,95271.00
2023-05-30T04:12:01.142Z,95269.00
2023-05-30T04:13:01.225Z,95271.00
2023-05-30T04:14:01.385Z,95269.00
2023-05-30T04:15:01.387Z,95271.00
2023-05-30T04:16:01.618Z,95273.00
2023-05-30T04:17:01.531Z,95273.00
2023-05-30T04:18:01.634Z,95275.00
2023-05-30T04:19:01.707Z,95277.00
2023-05-30T04:20:01.818Z,95275.00
2023-05-30T04:21:02.200Z,95277.00
2023-05-30T04:22:01.914Z,95273.00
2023-05-30T04:23:01.960Z,95275.00
2023-05-30T04:24:02.017Z,95273.00
2023-05-30T04:25:02.120Z,95275.00
2023-05-30T04:26:02.143Z,95275.00
2023-05-30T04:27:02.218Z,95273.00
2023-05-30T04:28:02.314Z,95273.00
2023-05-30T04:29:02.347Z,95275.00
2023-05-30T04:30:02.435Z,95279.00
2023-05-30T04:31:19.054Z,95279.00
2023-05-30T04:32:03.598Z,95277.00
2023-05-30T04:33:02.717Z,95279.00
2023-05-30T04:34:02.596Z,95281.00
2023-05-30T04:35:02.639Z,95277.00
2023-05-30T04:36:02.717Z,95279.00
2023-05-30T04:37:02.749Z,95277.00
2023-05-30T04:38:02.773Z,95277.00
2023-05-30T04:39:02.836Z,95277.00
2023-05-30T04:40:02.861Z,95279.00
2023-05-30T04:41:02.888Z,95281.00
2023-05-30T04:42:02.943Z,95281.00
2023-05-30T04:43:02.960Z,95283.00
2023-05-30T04:44:03.036Z,95283.00
2023-05-30T04:45:03.058Z,95283.00
2023-05-30T04:46:10.366Z,95283.00
2023-05-30T04:47:04.184Z,95283.00
2023-05-30T04:48:03.179Z,95283.00
2023-05-30T04:49:03.402Z,95285.00
2023-05-30T04:50:03.263Z,95287.00
2023-05-30T04:51:03.285Z,95287.00
2023-05-30T04:52:03.300Z,95289.00
2023-05-30T04:53:03.353Z,95289.00
2023-05-30T04:54:03.439Z,95289.00
2023-05-30T04:55:03.446Z,95291.00
2023-05-30T04:56:03.498Z,95291.00
2023-05-30T04:57:03.545Z,95291.00
2023-05-30T04:58:03.622Z,95291.00
2023-05-30T04:59:03.622Z,95289.00
2023-05-30T05:00:03.663Z,95289.00
2023-05-30T05:01:10.753Z,95287.00
2023-05-30T05:02:03.771Z,95291.00
2023-05-30T05:03:03.981Z,95289.00
2023-05-30T05:04:03.958Z,95291.00
2023-05-30T05:05:03.964Z,95295.00
2023-05-30T05:06:03.986Z,95293.00
2023-05-30T05:07:04.027Z,95293.00
2023-05-30T05:08:04.044Z,95295.00
2023-05-30T05:09:04.078Z,95295.00
2023-05-30T05:10:04.151Z,95293.00
2023-05-30T05:11:04.178Z,95295.00
2023-05-30T05:12:04.235Z,95293.00
2023-05-30T05:13:04.231Z,95291.00
2023-05-30T05:14:04.287Z,95295.00
2023-05-30T05:15:04.331Z,95293.00
2023-05-30T05:16:04.401Z,95293.00
2023-05-30T05:17:04.410Z,95297.00
2023-05-30T05:18:04.479Z,95297.00
2023-05-30T05:19:04.505Z,95297.00
2023-05-30T05:20:06.057Z,95297.00
2023-05-30T05:21:04.814Z,95297.00
2023-05-30T05:22:04.618Z,95293.00
2023-05-30T05:23:04.641Z,95291.00
2023-05-30T05:24:04.728Z,95295.00
2023-05-30T05:25:04.730Z,95295.00
2023-05-30T05:26:04.782Z,95295.00
2023-05-30T05:27:04.837Z,95293.00
2023-05-30T05:28:04.976Z,95295.00
2023-05-30T05:29:04.943Z,95293.00
2023-05-30T05:30:04.955Z,95293.00
2023-05-30T05:31:04.982Z,95291.00
2023-05-30T05:32:05.069Z,95291.00
2023-05-30T05:33:06.762Z,95293.00
2023-05-30T05:34:05.112Z,95295.00
2023-05-30T05:35:05.157Z,95293.00
2023-05-30T05:36:05.508Z,95295.00
2023-05-30T05:37:05.648Z,95293.00
2023-05-30T05:38:05.275Z,95293.00
2023-05-30T05:39:06.453Z,95293.00
2023-05-30T05:40:05.389Z,95293.00
2023-05-30T05:41:05.462Z,95297.00
2023-05-30T05:42:05.640Z,95295.00
2023-05-30T05:43:05.478Z,95297.00
2023-05-30T05:44:05.524Z,95297.00
2023-05-30T05:45:05.582Z,95297.00
2023-05-30T05:46:12.706Z,95293.00
2023-05-30T05:47:06.188Z,95299.00
2023-05-30T05:48:05.890Z,95299.00
2023-05-30T05:49:05.784Z,95297.00
2023-05-30T05:50:05.889Z,95299.00
2023-05-30T05:51:05.972Z,95299.00
2023-05-30T05:52:05.955Z,95299.00
2023-05-30T05:53:06.249Z,95297.00
2023-05-30T05:54:06.025Z,95301.00
2023-05-30T05:55:06.078Z,95297.00
2023-05-30T05:56:06.131Z,95303.00
2023-05-30T05:57:06.133Z,95301.00
2023-05-30T05:58:06.222Z,95301.00
2023-05-30T05:59:06.231Z,95301.00
2023-05-30T06:00:06.294Z,95305.00
2023-05-30T06:01:06.314Z,95299.00
2023-05-30T06:02:06.434Z,95307.00
2023-05-30T06:03:08.771Z,95305.00
2023-05-30T06:04:06.595Z,95307.00
2023-05-30T06:05:06.498Z,95309.00
2023-05-30T06:06:06.532Z,95307.00
2023-05-30T06:07:06.596Z,95307.00
2023-05-30T06:08:06.678Z,95307.00
2023-05-30T06:09:06.665Z,95307.00
2023-05-30T06:10:06.763Z,95305.00
2023-05-30T06:11:06.698Z,95307.00
2023-05-30T06:12:07.883Z,95307.00
2023-05-30T06:13:06.794Z,95309.00
2023-05-30T06:14:06.843Z,95305.00
2023-05-30T06:15:06.891Z,95307.00
2023-05-30T06:16:06.949Z,95305.00
2023-05-30T06:17:06.941Z,95305.00
2023-05-30T06:18:07.262Z,95305.00
2023-05-30T06:19:07.079Z,95303.00
2023-05-30T06:20:07.105Z,95301.00
2023-05-30T06:21:07.168Z,95305.00
2023-05-30T06:22:07.211Z,95305.00
2023-05-30T06:23:07.677Z,95305.00
2023-05-30T06:24:07.193Z,95305.00
2023-05-30T06:25:07.282Z,95307.00
2023-05-30T06:26:07.290Z,95307.00
2023-05-30T06:27:08.050Z,95303.00
2023-05-30T06:28:08.268Z,95303.00
2023-05-30T06:29:07.552Z,95303.00
2023-05-30T06:30:08.239Z,95301.00
2023-05-30T06:31:07.505Z,95303.00
2023-05-30T06:33:08.600Z,95301.00
2023-05-30T06:34:07.612Z,95299.00
2023-05-30T06:35:08.155Z,95299.00
2023-05-30T06:36:07.677Z,95301.00
2023-05-30T06:37:08.131Z,95301.00
2023-05-30T06:38:08.167Z,95295.00
2023-05-30T06:39:07.758Z,95297.00
2023-05-30T06:40:07.806Z,95297.00
2023-05-30T06:41:07.820Z,95297.00
2023-05-30T06:42:07.889Z,95295.00
2023-05-30T06:43:08.000Z,95301.00
2023-05-30T06:44:07.968Z,95299.00
2023-05-30T06:45:08.013Z,95301.00
2023-05-30T06:46:08.062Z,95301.00
2023-05-30T06:47:08.117Z,95297.00
2023-05-30T06:48:08.273Z,95297.00
2023-05-30T06:49:08.158Z,95299.00
2023-05-30T06:50:08.302Z,95297.00
2023-05-30T06:51:08.260Z,95295.00
2023-05-30T06:52:08.343Z,95293.00
2023-05-30T06:53:08.452Z,95291.00
2023-05-30T06:54:08.644Z,95293.00
2023-05-30T06:55:09.332Z,95291.00
2023-05-30T06:56:08.637Z,95293.00
2023-05-30T06:57:09.730Z,95291.00
2023-05-30T06:58:09.216Z,95287.00
2023-05-30T06:59:08.916Z,95289.00
2023-05-30T07:00:10.050Z,95289.00
2023-05-30T07:01:09.934Z,95289.00
2023-05-30T07:02:10.294Z,95291.00
2023-05-30T07:03:09.355Z,95287.00
2023-05-30T07:04:09.717Z,95287.00
2023-05-30T07:05:09.938Z,95289.00
2023-05-30T07:06:09.301Z,95289.00
2023-05-30T07:07:09.381Z,95289.00
2023-05-30T07:08:09.717Z,95291.00
2023-05-30T07:09:09.430Z,95291.00
2023-05-30T07:10:09.530Z,95287.00
2023-05-30T07:11:09.522Z,95287.00
2023-05-30T07:12:10.484Z,95287.00
2023-05-30T07:13:10.605Z,95287.00
2023-05-30T07:14:09.995Z,95285.00
2023-05-30T07:15:09.741Z,95287.00
2023-05-30T07:16:09.797Z,95287.00
2023-05-30T07:17:09.933Z,95285.00
2023-05-30T07:18:09.838Z,95285.00
2023-05-30T07:19:13.098Z,95287.00
2023-05-30T07:20:09.996Z,95283.00
2023-05-30T07:21:09.975Z,95285.00
2023-05-30T07:22:10.032Z,95287.00
2023-05-30T07:23:10.080Z,95285.00
2023-05-30T07:24:10.108Z,95287.00
2023-05-30T07:25:10.160Z,95283.00
2023-05-30T07:26:10.225Z,95287.00
2023-05-30T07:27:10.240Z,95285.00
2023-05-30T07:28:10.731Z,95283.00
2023-05-30T07:29:10.340Z,95283.00
2023-05-30T07:30:10.422Z,95283.00
2023-05-30T07:31:10.449Z,95281.00
2023-05-30T07:32:10.488Z,95281.00
2023-05-30T07:33:10.742Z,95279.00
2023-05-30T07:34:10.544Z,95277.00
2023-05-30T07:35:10.665Z,95279.00
2023-05-30T07:36:10.677Z,95275.00
2023-05-30T07:37:10.719Z,95273.00
2023-05-30T07:38:10.764Z,95273.00
2023-05-30T07:39:11.205Z,95269.00
2023-05-30T07:40:10.849Z,95269.00
2023-05-30T07:41:10.918Z,95269.00
2023-05-30T07:42:10.923Z,95269.00
2023-05-30T07:43:11.240Z,95268.00
2023-05-30T07:44:11.034Z,95269.00
2023-05-30T07:45:11.030Z,95271.00
2023-05-30T07:46:11.115Z,95271.00
2023-05-30T07:47:11.123Z,95271.00
2023-05-30T07:48:11.137Z,95269.00
2023-05-30T07:49:11.194Z,95271.00
2023-05-30T07:50:11.277Z,95273.00
2023-05-30T07:51:11.282Z,95271.00
2023-05-30T07:52:11.272Z,95269.00
2023-05-30T07:53:11.329Z,95271.00
2023-05-30T07:54:11.754Z,95268.00
2023-05-30T07:55:11.423Z,95266.00
2023-05-30T07:56:11.455Z,95266.00
2023-05-30T07:57:11.533Z,95264.00
2023-05-30T07:58:11.605Z,95268.00
2023-05-30T07:59:11.583Z,95266.00
2023-05-30T08:00:11.636Z,95268.00
2023-05-30T08:01:11.699Z,95266.00
2023-05-30T08:02:11.773Z,95266.00
2023-05-30T08:03:11.913Z,95266.00
2023-05-30T08:04:11.932Z,95266.00
2023-05-30T08:05:11.875Z,95264.00
2023-05-30T08:06:11.917Z,95266.00
2023-05-30T08:07:11.946Z,95262.00
2023-05-30T08:08:12.027Z,95264.00
2023-05-30T08:09:12.050Z,95262.00
2023-05-30T08:10:12.064Z,95262.00
2023-05-30T08:11:12.192Z,95262.00
2023-05-30T08:12:12.186Z,95260.00
2023-05-30T08:13:12.204Z,95260.00
2023-05-30T08:14:12.220Z,95256.00
2023-05-30T08:15:12.288Z,95256.00
2023-05-30T08:16:12.355Z,95256.00
2023-05-30T08:17:12.422Z,95256.00
2023-05-30T08:18:12.513Z,95254.00
2023-05-30T08:19:12.493Z,95254.00
2023-05-30T08:20:12.640Z,95254.00
2023-05-30T08:21:12.551Z,95248.00
2023-05-30T08:22:12.591Z,95250.00
2023-05-30T08:23:12.644Z,95248.00
2023-05-30T08:24:12.678Z,95248.00
2023-05-30T08:25:12.717Z,95250.00
2023-05-30T08:26:12.750Z,95250.00
2023-05-30T08:27:12.834Z,95250.00
2023-05-30T08:28:12.876Z,95250.00
2023-05-30T08:29:12.930Z,95248.00
2023-05-30T08:30:12.964Z,95240.00
2023-05-30T08:31:13.038Z,95244.00
2023-05-30T08:32:13.076Z,95246.00
2023-05-30T08:33:13.101Z,95248.00
2023-05-30T08:34:13.281Z,95248.00
2023-05-30T08:35:13.196Z,95244.00
2023-05-30T08:36:13.274Z,95244.00
2023-05-30T08:37:13.350Z,95242.00
2023-05-30T08:38:13.418Z,95240.00
2023-05-30T08:39:15.675Z,95240.00
2023-05-30T08:40:13.575Z,95238.00
2023-05-30T08:41:13.629Z,95238.00
2023-05-30T08:42:13.687Z,95238.00
2023-05-30T08:43:13.702Z,95236.00
2023-05-30T08:44:14.257Z,95236.00
2023-05-30T08:45:13.833Z,95234.00
2023-05-30T08:46:13.918Z,95236.00
2023-05-30T08:47:13.972Z,95236.00
2023-05-30T08:48:14.042Z,95232.00
2023-05-30T08:49:14.293Z,95230.00
2023-05-30T08:50:14.108Z,95228.00
2023-05-30T08:51:14.157Z,95232.00
2023-05-30T08:52:14.335Z,95234.00
2023-05-30T08:53:14.330Z,95232.00
2023-05-30T08:54:14.752Z,95230.00
2023-05-30T08:55:14.442Z,95230.00
2023-05-30T08:56:14.477Z,95228.00
2023-05-30T08:57:14.498Z,95228.00
2023-05-30T08:58:14.603Z,95222.00
2023-05-30T08:59:14.778Z,95221.00
2023-05-30T09:00:14.699Z,95219.00
2023-05-30T09:01:14.797Z,95222.00
2023-05-30T09:02:14.789Z,95221.00
2023-05-30T09:03:14.904Z,95219.00
2023-05-30T09:04:14.872Z,95217.00
2023-05-30T09:05:15.251Z,95217.00
2023-05-30T09:06:14.975Z,95219.00
2023-05-30T09:07:15.056Z,95219.00
2023-05-30T09:08:15.103Z,95219.00
2023-05-30T09:09:15.196Z,95215.00
2023-05-30T09:10:15.225Z,95217.00
2023-05-30T09:11:15.252Z,95213.00
2023-05-30T09:12:15.368Z,95213.00
2023-05-30T09:13:15.413Z,95211.00
2023-05-30T09:14:15.798Z,95211.00
2023-05-30T09:15:15.559Z,95209.00
2023-05-30T09:16:15.690Z,95205.00
2023-05-30T09:17:15.742Z,95203.00
2023-05-30T09:18:15.783Z,95201.00
2023-05-30T09:19:15.972Z,95203.00
2023-05-30T09:20:16.048Z,95197.00
2023-05-30T09:21:16.119Z,95201.00
2023-05-30T09:22:16.202Z,95195.00
2023-05-30T09:23:16.277Z,95195.00
2023-05-30T09:24:16.787Z,95191.00
2023-05-30T09:25:16.430Z,95191.00
2023-05-30T09:26:16.555Z,95193.00
2023-05-30T09:27:16.635Z,95191.00
2023-05-30T09:28:16.734Z,95189.00
2023-05-30T09:29:16.758Z,95191.00
2023-05-30T09:30:16.872Z,95187.00
2023-05-30T09:31:16.969Z,95189.00
2023-05-30T09:32:16.983Z,95191.00
2023-05-30T09:33:17.080Z,95191.00
2023-05-30T09:34:17.170Z,95189.00
2023-05-30T09:35:17.219Z,95189.00
2023-05-30T09:36:17.397Z,95189.00
2023-05-30T09:37:17.430Z,95185.00
2023-05-30T09:38:17.516Z,95185.00
2023-05-30T09:39:17.597Z,95187.00
2023-05-30T09:40:17.780Z,95183.00
2023-05-30T09:41:17.746Z,95181.00
2023-05-30T09:42:17.827Z,95187.00
2023-05-30T09:43:17.915Z,95185.00
2023-05-30T09:44:18.320Z,95183.00
2023-05-30T09:45:18.090Z,95181.00
2023-05-30T09:46:18.190Z,95179.00
2023-05-30T09:47:18.782Z,95177.00
2023-05-30T09:48:18.353Z,95174.00
2023-05-30T09:49:18.409Z,95174.00
2023-05-30T09:50:18.934Z,95172.00
2023-05-30T09:51:18.532Z,95174.00
2023-05-30T09:52:18.643Z,95170.00
2023-05-30T09:53:18.750Z,95174.00
2023-05-30T09:54:19.822Z,95170.00
2023-05-30T09:55:19.290Z,95170.00
2023-05-30T09:56:19.014Z,95168.00
2023-05-30T09:57:19.079Z,95168.00
2023-05-30T09:58:19.157Z,95168.00
2023-05-30T09:59:19.284Z,95166.00
2023-05-30T10:00:19.346Z,95162.00
2023-05-30T10:01:19.481Z,95162.00
2023-05-30T10:02:19.536Z,95160.00
2023-05-30T10:03:19.651Z,95150.00
2023-05-30T10:04:19.740Z,95150.00
2023-05-30T10:05:19.737Z,95148.00
2023-05-30T10:06:19.781Z,95146.00
2023-05-30T10:07:19.863Z,95148.00
2023-05-30T10:08:19.918Z,95152.00
2023-05-30T10:09:20.014Z,95148.00
2023-05-30T10:10:20.028Z,95148.00
2023-05-30T10:11:20.118Z,95146.00
2023-05-30T10:12:20.147Z,95144.00
2023-05-30T10:13:20.247Z,95142.00
2023-05-30T10:14:20.301Z,95144.00
2023-05-30T10:15:20.333Z,95138.00
2023-05-30T10:16:20.506Z,95136.00
2023-05-30T10:17:20.497Z,95138.00
2023-05-30T10:18:20.527Z,95138.00
2023-05-30T10:19:20.790Z,95130.00
2023-05-30T10:20:20.725Z,95130.00
2023-05-30T10:21:20.764Z,95126.00
2023-05-30T10:22:20.789Z,95126.00
2023-05-30T10:23:20.833Z,95124.00
2023-05-30T10:24:20.892Z,95126.00
2023-05-30T10:25:20.975Z,95122.00
2023-05-30T10:26:20.992Z,95122.00
2023-05-30T10:27:21.042Z,95121.00
2023-05-30T10:28:21.088Z,95122.00
2023-05-30T10:29:21.332Z,95121.00
2023-05-30T10:30:21.258Z,95117.00
2023-05-30T10:31:21.302Z,95113.00
2023-05-30T10:32:21.329Z,95111.00
2023-05-30T10:33:30.153Z,95113.00
2023-05-30T10:34:22.794Z,95115.00
2023-05-30T10:35:21.481Z,95111.00
2023-05-30T10:36:21.453Z,95107.00
2023-05-30T10:37:21.488Z,95109.00
2023-05-30T10:38:21.524Z,95105.00
2023-05-30T10:39:21.802Z,95101.00
2023-05-30T10:40:21.531Z,95105.00
2023-05-30T10:41:21.611Z,95097.00
2023-05-30T10:42:21.614Z,95097.00
2023-05-30T10:43:21.652Z,95101.00
2023-05-30T10:44:21.823Z,95105.00
2023-05-30T10:45:21.744Z,95099.00
2023-05-30T10:46:21.872Z,95097.00
2023-05-30T10:47:21.840Z,95101.00
2023-05-30T10:48:21.827Z,95103.00
2023-05-30T10:49:22.393Z,95101.00
2023-05-30T10:50:21.839Z,95097.00
2023-05-30T10:51:21.906Z,95095.00
2023-05-30T10:52:21.987Z,95089.00
2023-05-30T10:53:22.065Z,95085.00
2023-05-30T10:54:22.140Z,95087.00
2023-05-30T10:55:22.332Z,95085.00
2023-05-30T10:56:22.308Z,95087.00
2023-05-30T10:57:22.402Z,95091.00
2023-05-30T10:58:22.454Z,95081.00
2023-05-30T10:59:22.491Z,95085.00
2023-05-30T11:00:22.812Z,95081.00
2023-05-30T11:01:22.748Z,95085.00
2023-05-30T11:02:22.742Z,95087.00
2023-05-30T11:03:22.893Z,95081.00
2023-05-30T11:04:22.944Z,95075.00
2023-05-30T11:05:22.977Z,95079.00
2023-05-30T11:06:23.012Z,95077.00
2023-05-30T11:07:23.145Z,95075.00
2023-05-30T11:08:23.232Z,95079.00
2023-05-30T11:09:23.285Z,95074.00
2023-05-30T11:10:23.358Z,95074.00
2023-05-30T11:11:23.423Z,95070.00
2023-05-30T11:12:23.526Z,95072.00
2023-05-30T11:13:23.552Z,95074.00
2023-05-30T11:14:23.622Z,95068.00
2023-05-30T11:15:23.704Z,95072.00
2023-05-30T11:16:23.777Z,95072.00
2023-05-30T11:17:24.785Z,95070.00
2023-05-30T11:18:23.847Z,95072.00
2023-05-30T11:19:23.948Z,95068.00
2023-05-30T11:20:24.062Z,95064.00
2023-05-30T11:21:24.048Z,95060.00
2023-05-30T11:22:24.135Z,95060.00
2023-05-30T11:23:24.171Z,95056.00
2023-05-30T11:24:24.247Z,95054.00
2023-05-30T11:25:24.321Z,95054.00
2023-05-30T11:26:24.388Z,95052.00
2023-05-30T11:27:24.449Z,95052.00
2023-05-30T11:28:24.498Z,95052.00
2023-05-30T11:29:24.555Z,95054.00
2023-05-30T11:30:24.825Z,95054.00
2023-05-30T11:31:24.730Z,95054.00
2023-05-30T11:32:25.022Z,95052.00
2023-05-30T11:33:24.803Z,95050.00
2023-05-30T11:34:24.875Z,95054.00
2023-05-30T11:35:25.388Z,95050.00
2023-05-30T11:36:24.941Z,95044.00
2023-05-30T11:37:25.030Z,95042.00
2023-05-30T11:38:25.040Z,95042.00
2023-05-30T11:39:25.143Z,95038.00
2023-05-30T11:40:25.173Z,95044.00
2023-05-30T11:41:25.161Z,95042.00
2023-05-30T11:42:25.237Z,95034.00
2023-05-30T11:43:25.266Z,95034.00
2023-05-30T11:44:25.307Z,95036.00
2023-05-30T11:45:25.350Z,95034.00
2023-05-30T11:46:25.404Z,95032.00